sensor_id;sensor_type;location;lat;lon;timestamp;P1;durP1;ratioP1;P2;durP2;ratioP2
323;SDS011;149;51.094;17.002;2023-05-08T00:01:15;7.80;;;6.70;;
323;SDS011;149;51.094;17.002;2023-05-08T00:03:41;4.95;;;4.50;;
323;SDS011;149;51.094;17.002;2023-05-08T00:06:09;12.13;;;6.15;;
323;SDS011;149;51.094;17.002;2023-05-08T00:08:36;7.32;;;5.72;;
323;SDS011;149;51.094;17.002;2023-05-08T00:11:03;6.40;;;5.88;;
323;SDS011;149;51.094;17.002;2023-05-08T00:13:30;7.85;;;6.22;;
323;SDS011;149;51.094;17.002;2023-05-08T00:15:57;9.77;;;6.13;;
323;SDS011;149;51.094;17.002;2023-05-08T00:18:23;6.18;;;5.65;;
323;SDS011;149;51.094;17.002;2023-05-08T00:20:50;6.97;;;6.35;;
323;SDS011;149;51.094;17.002;2023-05-08T00:23:17;8.80;;;6.47;;
323;SDS011;149;51.094;17.002;2023-05-08T00:25:44;6.15;;;5.50;;
323;SDS011;149;51.094;17.002;2023-05-08T00:28:11;10.75;;;7.30;;
323;SDS011;149;51.094;17.002;2023-05-08T00:30:38;7.10;;;6.13;;
323;SDS011;149;51.094;17.002;2023-05-08T00:33:05;8.30;;;7.35;;
323;SDS011;149;51.094;17.002;2023-05-08T00:35:32;7.82;;;7.03;;
323;SDS011;149;51.094;17.002;2023-05-08T00:37:58;7.28;;;6.20;;
323;SDS011;149;51.094;17.002;2023-05-08T00:40:26;8.85;;;7.22;;
323;SDS011;149;51.094;17.002;2023-05-08T00:42:53;8.63;;;7.05;;
323;SDS011;149;51.094;17.002;2023-05-08T00:45:20;9.32;;;7.65;;
323;SDS011;149;51.094;17.002;2023-05-08T00:47:48;8.77;;;6.72;;
323;SDS011;149;51.094;17.002;2023-05-08T00:50:15;9.00;;;7.97;;
323;SDS011;149;51.094;17.002;2023-05-08T00:52:43;9.27;;;7.80;;
323;SDS011;149;51.094;17.002;2023-05-08T00:55:11;8.13;;;6.45;;
323;SDS011;149;51.094;17.002;2023-05-08T00:57:38;8.75;;;7.38;;
323;SDS011;149;51.094;17.002;2023-05-08T01:00:05;11.95;;;9.57;;
323;SDS011;149;51.094;17.002;2023-05-08T01:02:33;10.52;;;8.13;;
323;SDS011;149;51.094;17.002;2023-05-08T01:05:01;7.97;;;7.20;;
323;SDS011;149;51.094;17.002;2023-05-08T01:07:28;9.18;;;8.25;;
323;SDS011;149;51.094;17.002;2023-05-08T01:09:55;11.85;;;8.52;;
323;SDS011;149;51.094;17.002;2023-05-08T01:12:25;13.93;;;9.40;;
323;SDS011;149;51.094;17.002;2023-05-08T01:34:45;14.70;;;8.38;;
323;SDS011;149;51.094;17.002;2023-05-08T01:43:43;9.25;;;8.15;;
323;SDS011;149;51.094;17.002;2023-05-08T01:46:31;10.43;;;9.05;;
323;SDS011;149;51.094;17.002;2023-05-08T01:49:07;11.30;;;10.13;;
323;SDS011;149;51.094;17.002;2023-05-08T01:51:40;9.18;;;8.18;;
323;SDS011;149;51.094;17.002;2023-05-08T01:54:14;10.57;;;7.90;;
323;SDS011;149;51.094;17.002;2023-05-08T01:56:42;12.30;;;8.88;;
323;SDS011;149;51.094;17.002;2023-05-08T01:59:12;10.13;;;8.38;;
323;SDS011;149;51.094;17.002;2023-05-08T02:01:42;10.25;;;9.23;;
323;SDS011;149;51.094;17.002;2023-05-08T02:04:11;14.73;;;9.32;;
323;SDS011;149;51.094;17.002;2023-05-08T02:06:41;8.65;;;7.75;;
323;SDS011;149;51.094;17.002;2023-05-08T02:09:08;10.35;;;9.00;;
323;SDS011;149;51.094;17.002;2023-05-08T02:11:37;12.48;;;8.80;;
323;SDS011;149;51.094;17.002;2023-05-08T02:14:06;10.73;;;9.63;;
323;SDS011;149;51.094;17.002;2023-05-08T02:16:35;14.18;;;10.52;;
323;SDS011;149;51.094;17.002;2023-05-08T02:19:02;12.10;;;9.88;;
323;SDS011;149;51.094;17.002;2023-05-08T02:21:30;10.75;;;9.65;;
323;SDS011;149;51.094;17.002;2023-05-08T02:23:58;13.07;;;9.38;;
323;SDS011;149;51.094;17.002;2023-05-08T02:26:26;10.98;;;8.75;;
323;SDS011;149;51.094;17.002;2023-05-08T02:28:54;12.25;;;9.50;;
323;SDS011;149;51.094;17.002;2023-05-08T02:31:22;12.98;;;9.00;;
323;SDS011;149;51.094;17.002;2023-05-08T02:33:50;11.55;;;8.32;;
323;SDS011;149;51.094;17.002;2023-05-08T02:36:20;14.10;;;9.77;;
323;SDS011;149;51.094;17.002;2023-05-08T02:38:51;10.73;;;9.20;;
323;SDS011;149;51.094;17.002;2023-05-08T02:41:21;9.85;;;8.82;;
323;SDS011;149;51.094;17.002;2023-05-08T02:43:50;14.82;;;9.88;;
323;SDS011;149;51.094;17.002;2023-05-08T02:46:18;11.35;;;9.30;;
323;SDS011;149;51.094;17.002;2023-05-08T02:48:57;14.15;;;10.43;;
323;SDS011;149;51.094;17.002;2023-05-08T02:51:36;15.23;;;10.60;;
323;SDS011;149;51.094;17.002;2023-05-08T03:05:18;14.40;;;10.82;;
323;SDS011;149;51.094;17.002;2023-05-08T03:07:52;13.50;;;10.95;;
323;SDS011;149;51.094;17.002;2023-05-08T03:10:23;11.80;;;10.55;;
323;SDS011;149;51.094;17.002;2023-05-08T03:12:53;12.55;;;10.88;;
323;SDS011;149;51.094;17.002;2023-05-08T03:15:26;16.48;;;10.65;;
323;SDS011;149;51.094;17.002;2023-05-08T03:18:01;12.48;;;10.93;;
323;SDS011;149;51.094;17.002;2023-05-08T03:20:32;10.57;;;9.57;;
323;SDS011;149;51.094;17.002;2023-05-08T03:23:03;13.57;;;10.52;;
323;SDS011;149;51.094;17.002;2023-05-08T03:25:33;11.18;;;10.00;;
323;SDS011;149;51.094;17.002;2023-05-08T03:28:01;12.43;;;9.43;;
323;SDS011;149;51.094;17.002;2023-05-08T03:30:30;12.02;;;9.85;;
323;SDS011;149;51.094;17.002;2023-05-08T03:33:00;11.23;;;9.93;;
323;SDS011;149;51.094;17.002;2023-05-08T03:35:36;11.20;;;8.60;;
323;SDS011;149;51.094;17.002;2023-05-08T03:38:04;12.70;;;10.48;;
323;SDS011;149;51.094;17.002;2023-05-08T03:40:32;9.48;;;8.35;;
323;SDS011;149;51.094;17.002;2023-05-08T03:43:02;13.63;;;10.75;;
323;SDS011;149;51.094;17.002;2023-05-08T03:45:33;13.35;;;10.85;;
323;SDS011;149;51.094;17.002;2023-05-08T03:48:02;12.63;;;11.32;;
323;SDS011;149;51.094;17.002;2023-05-08T03:50:31;11.27;;;9.63;;
323;SDS011;149;51.094;17.002;2023-05-08T03:53:01;13.95;;;10.80;;
323;SDS011;149;51.094;17.002;2023-05-08T03:55:31;12.32;;;10.60;;
323;SDS011;149;51.094;17.002;2023-05-08T04:03:55;11.90;;;9.23;;
323;SDS011;149;51.094;17.002;2023-05-08T04:09:33;11.80;;;9.88;;
323;SDS011;149;51.094;17.002;2023-05-08T04:12:14;10.23;;;8.68;;
323;SDS011;149;51.094;17.002;2023-05-08T04:14:54;12.48;;;9.45;;
323;SDS011;149;51.094;17.002;2023-05-08T04:20:03;9.20;;;7.70;;
323;SDS011;149;51.094;17.002;2023-05-08T04:22:32;7.55;;;6.85;;
323;SDS011;149;51.094;17.002;2023-05-08T04:25:01;10.00;;;7.88;;
323;SDS011;149;51.094;17.002;2023-05-08T04:27:30;10.73;;;8.40;;
323;SDS011;149;51.094;17.002;2023-05-08T04:30:00;8.48;;;7.25;;
323;SDS011;149;51.094;17.002;2023-05-08T04:32:28;7.22;;;6.50;;
323;SDS011;149;51.094;17.002;2023-05-08T04:34:57;8.00;;;7.18;;
323;SDS011;149;51.094;17.002;2023-05-08T04:37:24;7.60;;;6.80;;
323;SDS011;149;51.094;17.002;2023-05-08T04:39:52;8.32;;;7.50;;
323;SDS011;149;51.094;17.002;2023-05-08T04:42:19;7.40;;;6.65;;
323;SDS011;149;51.094;17.002;2023-05-08T04:44:47;7.65;;;6.13;;
323;SDS011;149;51.094;17.002;2023-05-08T04:47:16;7.43;;;6.65;;
323;SDS011;149;51.094;17.002;2023-05-08T04:49:44;7.20;;;6.50;;
323;SDS011;149;51.094;17.002;2023-05-08T04:52:14;8.00;;;6.43;;
323;SDS011;149;51.094;17.002;2023-05-08T04:54:42;7.82;;;6.82;;
323;SDS011;149;51.094;17.002;2023-05-08T04:57:09;7.68;;;6.00;;
323;SDS011;149;51.094;17.002;2023-05-08T04:59:36;9.20;;;6.55;;
323;SDS011;149;51.094;17.002;2023-05-08T05:02:03;9.88;;;5.25;;
323;SDS011;149;51.094;17.002;2023-05-08T05:04:34;6.03;;;5.45;;
323;SDS011;149;51.094;17.002;2023-05-08T05:07:02;10.57;;;6.68;;
323;SDS011;149;51.094;17.002;2023-05-08T05:09:29;7.35;;;6.40;;
323;SDS011;149;51.094;17.002;2023-05-08T05:11:56;7.50;;;6.38;;
323;SDS011;149;51.094;17.002;2023-05-08T05:14:23;10.07;;;6.20;;
323;SDS011;149;51.094;17.002;2023-05-08T05:16:53;9.02;;;7.60;;
323;SDS011;149;51.094;17.002;2023-05-08T05:19:19;9.75;;;5.90;;
323;SDS011;149;51.094;17.002;2023-05-08T05:21:47;10.05;;;6.18;;
323;SDS011;149;51.094;17.002;2023-05-08T05:24:14;7.55;;;6.72;;
323;SDS011;149;51.094;17.002;2023-05-08T05:26:41;7.72;;;5.45;;
323;SDS011;149;51.094;17.002;2023-05-08T05:29:08;5.18;;;4.75;;
323;SDS011;149;51.094;17.002;2023-05-08T05:31:34;7.07;;;5.57;;
323;SDS011;149;51.094;17.002;2023-05-08T05:34:01;8.00;;;6.30;;
323;SDS011;149;51.094;17.002;2023-05-08T05:36:28;5.97;;;5.40;;
323;SDS011;149;51.094;17.002;2023-05-08T05:38:55;9.45;;;6.30;;
323;SDS011;149;51.094;17.002;2023-05-08T05:41:22;15.65;;;6.65;;
323;SDS011;149;51.094;17.002;2023-05-08T05:43:49;6.65;;;6.05;;
323;SDS011;149;51.094;17.002;2023-05-08T05:46:16;6.28;;;5.68;;
323;SDS011;149;51.094;17.002;2023-05-08T05:48:44;8.02;;;6.25;;
323;SDS011;149;51.094;17.002;2023-05-08T05:51:11;9.63;;;6.40;;
323;SDS011;149;51.094;17.002;2023-05-08T05:53:38;8.43;;;5.88;;
323;SDS011;149;51.094;17.002;2023-05-08T05:56:10;6.75;;;6.13;;
323;SDS011;149;51.094;17.002;2023-05-08T05:58:37;11.55;;;6.13;;
323;SDS011;149;51.094;17.002;2023-05-08T06:01:06;6.97;;;6.00;;
323;SDS011;149;51.094;17.002;2023-05-08T06:03:33;12.82;;;5.55;;
323;SDS011;149;51.094;17.002;2023-05-08T06:06:00;8.40;;;5.82;;
323;SDS011;149;51.094;17.002;2023-05-08T06:08:27;7.47;;;5.20;;
323;SDS011;149;51.094;17.002;2023-05-08T06:10:55;6.65;;;5.55;;
323;SDS011;149;51.094;17.002;2023-05-08T06:13:22;6.00;;;5.15;;
323;SDS011;149;51.094;17.002;2023-05-08T06:15:49;5.75;;;5.05;;
323;SDS011;149;51.094;17.002;2023-05-08T06:18:33;11.73;;;5.50;;
323;SDS011;149;51.094;17.002;2023-05-08T06:21:04;6.07;;;5.40;;
323;SDS011;149;51.094;17.002;2023-05-08T06:23:32;4.75;;;4.30;;
323;SDS011;149;51.094;17.002;2023-05-08T06:26:00;13.52;;;5.40;;
323;SDS011;149;51.094;17.002;2023-05-08T06:28:29;6.65;;;5.95;;
323;SDS011;149;51.094;17.002;2023-05-08T06:30:56;5.05;;;4.65;;
323;SDS011;149;51.094;17.002;2023-05-08T06:33:23;6.65;;;5.13;;
323;SDS011;149;51.094;17.002;2023-05-08T06:35:52;5.53;;;5.03;;
323;SDS011;149;51.094;17.002;2023-05-08T06:38:19;5.47;;;4.97;;
323;SDS011;149;51.094;17.002;2023-05-08T06:40:45;10.90;;;5.00;;
323;SDS011;149;51.094;17.002;2023-05-08T06:43:15;7.28;;;4.55;;
323;SDS011;149;51.094;17.002;2023-05-08T06:45:42;5.15;;;4.75;;
323;SDS011;149;51.094;17.002;2023-05-08T06:48:10;7.85;;;3.70;;
323;SDS011;149;51.094;17.002;2023-05-08T06:50:37;5.45;;;4.93;;
323;SDS011;149;51.094;17.002;2023-05-08T06:53:05;4.85;;;3.97;;
323;SDS011;149;51.094;17.002;2023-05-08T06:55:33;7.38;;;4.50;;
323;SDS011;149;51.094;17.002;2023-05-08T06:58:00;5.28;;;3.80;;
323;SDS011;149;51.094;17.002;2023-05-08T07:00:27;4.18;;;3.83;;
323;SDS011;149;51.094;17.002;2023-05-08T07:02:54;5.70;;;3.78;;
323;SDS011;149;51.094;17.002;2023-05-08T07:05:21;8.95;;;4.30;;
323;SDS011;149;51.094;17.002;2023-05-08T07:07:48;4.60;;;4.10;;
323;SDS011;149;51.094;17.002;2023-05-08T07:10:15;4.45;;;3.17;;
323;SDS011;149;51.094;17.002;2023-05-08T07:12:45;5.40;;;3.53;;
323;SDS011;149;51.094;17.002;2023-05-08T07:15:12;4.13;;;3.53;;
323;SDS011;149;51.094;17.002;2023-05-08T07:17:51;3.33;;;3.05;;
323;SDS011;149;51.094;17.002;2023-05-08T07:20:18;3.13;;;2.80;;
323;SDS011;149;51.094;17.002;2023-05-08T07:22:45;4.93;;;4.43;;
323;SDS011;149;51.094;17.002;2023-05-08T07:25:12;3.15;;;2.95;;
323;SDS011;149;51.094;17.002;2023-05-08T07:27:41;3.30;;;2.97;;
323;SDS011;149;51.094;17.002;2023-05-08T07:30:08;3.00;;;2.80;;
323;SDS011;149;51.094;17.002;2023-05-08T07:32:36;5.77;;;3.40;;
323;SDS011;149;51.094;17.002;2023-05-08T07:35:05;3.23;;;2.80;;
323;SDS011;149;51.094;17.002;2023-05-08T07:37:36;4.90;;;3.57;;
323;SDS011;149;51.094;17.002;2023-05-08T07:40:07;4.20;;;3.50;;
323;SDS011;149;51.094;17.002;2023-05-08T07:42:41;5.00;;;4.10;;
323;SDS011;149;51.094;17.002;2023-05-08T07:45:10;3.97;;;3.67;;
323;SDS011;149;51.094;17.002;2023-05-08T07:47:47;4.33;;;3.97;;
323;SDS011;149;51.094;17.002;2023-05-08T07:50:16;5.27;;;4.77;;
323;SDS011;149;51.094;17.002;2023-05-08T07:52:44;9.17;;;7.83;;
323;SDS011;149;51.094;17.002;2023-05-08T07:55:14;6.70;;;5.30;;
323;SDS011;149;51.094;17.002;2023-05-08T07:57:43;5.87;;;4.60;;
323;SDS011;149;51.094;17.002;2023-05-08T08:00:14;4.43;;;4.13;;
323;SDS011;149;51.094;17.002;2023-05-08T08:02:42;4.70;;;4.30;;
323;SDS011;149;51.094;17.002;2023-05-08T08:05:10;6.33;;;4.80;;
323;SDS011;149;51.094;17.002;2023-05-08T08:07:38;5.03;;;4.33;;
323;SDS011;149;51.094;17.002;2023-05-08T08:10:05;4.27;;;3.87;;
323;SDS011;149;51.094;17.002;2023-05-08T08:12:32;4.33;;;3.93;;
323;SDS011;149;51.094;17.002;2023-05-08T08:15:01;5.77;;;4.13;;
323;SDS011;149;51.094;17.002;2023-05-08T08:17:28;4.77;;;4.37;;
323;SDS011;149;51.094;17.002;2023-05-08T08:19:55;5.23;;;3.80;;
323;SDS011;149;51.094;17.002;2023-05-08T08:22:23;6.00;;;4.20;;
323;SDS011;149;51.094;17.002;2023-05-08T08:24:50;4.17;;;3.80;;
323;SDS011;149;51.094;17.002;2023-05-08T08:27:20;6.53;;;3.87;;
323;SDS011;149;51.094;17.002;2023-05-08T08:29:47;4.87;;;4.37;;
323;SDS011;149;51.094;17.002;2023-05-08T08:32:23;7.20;;;4.00;;
323;SDS011;149;51.094;17.002;2023-05-08T08:34:52;3.93;;;3.63;;
323;SDS011;149;51.094;17.002;2023-05-08T08:37:18;4.33;;;3.93;;
323;SDS011;149;51.094;17.002;2023-05-08T08:39:46;5.10;;;4.20;;
323;SDS011;149;51.094;17.002;2023-05-08T08:42:19;3.30;;;3.00;;
323;SDS011;149;51.094;17.002;2023-05-08T08:44:49;4.10;;;3.20;;
323;SDS011;149;51.094;17.002;2023-05-08T08:47:16;6.30;;;3.83;;
323;SDS011;149;51.094;17.002;2023-05-08T08:49:48;4.37;;;3.87;;
323;SDS011;149;51.094;17.002;2023-05-08T08:52:28;4.93;;;3.80;;
323;SDS011;149;51.094;17.002;2023-05-08T08:55:04;3.57;;;3.27;;
323;SDS011;149;51.094;17.002;2023-05-08T08:57:35;5.27;;;3.93;;
323;SDS011;149;51.094;17.002;2023-05-08T09:00:07;3.83;;;3.47;;
323;SDS011;149;51.094;17.002;2023-05-08T09:02:36;6.33;;;3.80;;
323;SDS011;149;51.094;17.002;2023-05-08T09:05:08;4.20;;;3.80;;
323;SDS011;149;51.094;17.002;2023-05-08T09:07:37;4.73;;;3.30;;
323;SDS011;149;51.094;17.002;2023-05-08T09:10:04;5.03;;;3.47;;
323;SDS011;149;51.094;17.002;2023-05-08T09:12:32;3.63;;;3.33;;
323;SDS011;149;51.094;17.002;2023-05-08T09:14:59;4.53;;;4.13;;
323;SDS011;149;51.094;17.002;2023-05-08T09:17:26;6.17;;;4.40;;
323;SDS011;149;51.094;17.002;2023-05-08T09:19:53;5.33;;;3.87;;
323;SDS011;149;51.094;17.002;2023-05-08T09:22:21;4.73;;;3.10;;
323;SDS011;149;51.094;17.002;2023-05-08T09:27:20;4.67;;;3.30;;
323;SDS011;149;51.094;17.002;2023-05-08T09:29:57;4.00;;;3.60;;
323;SDS011;149;51.094;17.002;2023-05-08T09:32:30;6.83;;;4.33;;
323;SDS011;149;51.094;17.002;2023-05-08T09:34:59;5.18;;;4.05;;
323;SDS011;149;51.094;17.002;2023-05-08T09:37:27;4.25;;;3.85;;
323;SDS011;149;51.094;17.002;2023-05-08T09:40:11;4.55;;;4.15;;
323;SDS011;149;51.094;17.002;2023-05-08T09:42:41;4.10;;;3.80;;
323;SDS011;149;51.094;17.002;2023-05-08T09:45:09;5.90;;;4.35;;
323;SDS011;149;51.094;17.002;2023-05-08T09:47:37;4.32;;;3.92;;
323;SDS011;149;51.094;17.002;2023-05-08T09:50:06;5.47;;;4.13;;
323;SDS011;149;51.094;17.002;2023-05-08T09:52:35;5.40;;;4.25;;
323;SDS011;149;51.094;17.002;2023-05-08T09:57:38;6.90;;;4.65;;
323;SDS011;149;51.094;17.002;2023-05-08T10:00:17;5.95;;;3.90;;
323;SDS011;149;51.094;17.002;2023-05-08T10:02:54;5.18;;;3.67;;
323;SDS011;149;51.094;17.002;2023-05-08T10:07:53;5.20;;;4.70;;
323;SDS011;149;51.094;17.002;2023-05-08T10:10:23;5.78;;;4.20;;
323;SDS011;149;51.094;17.002;2023-05-08T10:12:56;5.43;;;3.70;;
323;SDS011;149;51.094;17.002;2023-05-08T10:15:25;4.90;;;3.90;;
323;SDS011;149;51.094;17.002;2023-05-08T10:18:04;4.75;;;4.25;;
323;SDS011;149;51.094;17.002;2023-05-08T10:20:33;4.90;;;4.50;;
323;SDS011;149;51.094;17.002;2023-05-08T10:23:03;4.75;;;4.35;;
323;SDS011;149;51.094;17.002;2023-05-08T10:25:45;4.68;;;4.28;;
323;SDS011;149;51.094;17.002;2023-05-08T10:31:06;4.25;;;3.85;;
323;SDS011;149;51.094;17.002;2023-05-08T10:33:39;6.22;;;4.10;;
323;SDS011;149;51.094;17.002;2023-05-08T10:36:07;4.82;;;4.18;;
323;SDS011;149;51.094;17.002;2023-05-08T10:38:36;4.00;;;3.55;;
323;SDS011;149;51.094;17.002;2023-05-08T10:41:03;4.15;;;3.75;;
323;SDS011;149;51.094;17.002;2023-05-08T10:43:32;3.85;;;3.45;;
323;SDS011;149;51.094;17.002;2023-05-08T10:46:01;3.03;;;2.83;;
323;SDS011;149;51.094;17.002;2023-05-08T10:54:18;6.45;;;4.45;;
323;SDS011;149;51.094;17.002;2023-05-08T10:57:00;3.40;;;3.13;;
323;SDS011;149;51.094;17.002;2023-05-08T10:59:36;4.10;;;3.35;;
323;SDS011;149;51.094;17.002;2023-05-08T11:02:04;4.57;;;3.58;;
323;SDS011;149;51.094;17.002;2023-05-08T11:04:32;4.10;;;3.35;;
323;SDS011;149;51.094;17.002;2023-05-08T11:07:00;4.72;;;4.05;;
323;SDS011;149;51.094;17.002;2023-05-08T11:09:29;10.10;;;4.57;;
323;SDS011;149;51.094;17.002;2023-05-08T11:12:16;3.28;;;2.97;;
323;SDS011;149;51.094;17.002;2023-05-08T11:14:52;9.40;;;4.80;;
323;SDS011;149;51.094;17.002;2023-05-08T11:17:35;4.32;;;3.85;;
323;SDS011;149;51.094;17.002;2023-05-08T11:20:02;5.70;;;3.75;;
323;SDS011;149;51.094;17.002;2023-05-08T11:22:32;4.32;;;3.85;;
323;SDS011;149;51.094;17.002;2023-05-08T11:25:01;4.53;;;3.05;;
323;SDS011;149;51.094;17.002;2023-05-08T11:33:22;4.03;;;3.72;;
323;SDS011;149;51.094;17.002;2023-05-08T11:35:46;3.90;;;3.50;;
323;SDS011;149;51.094;17.002;2023-05-08T11:41:19;2.95;;;2.65;;
323;SDS011;149;51.094;17.002;2023-05-08T11:46:41;2.83;;;2.53;;
323;SDS011;149;51.094;17.002;2023-05-08T11:49:14;3.08;;;2.75;;
323;SDS011;149;51.094;17.002;2023-05-08T11:51:44;4.28;;;3.03;;
323;SDS011;149;51.094;17.002;2023-05-08T11:54:16;2.80;;;2.60;;
323;SDS011;149;51.094;17.002;2023-05-08T11:56:44;3.47;;;3.13;;
323;SDS011;149;51.094;17.002;2023-05-08T11:59:13;3.50;;;2.33;;
323;SDS011;149;51.094;17.002;2023-05-08T12:01:40;3.40;;;3.10;;
323;SDS011;149;51.094;17.002;2023-05-08T12:04:13;4.85;;;2.88;;
323;SDS011;149;51.094;17.002;2023-05-08T12:06:43;3.13;;;2.83;;
323;SDS011;149;51.094;17.002;2023-05-08T12:09:10;5.43;;;2.83;;
323;SDS011;149;51.094;17.002;2023-05-08T12:11:39;2.90;;;2.60;;
323;SDS011;149;51.094;17.002;2023-05-08T12:14:09;3.03;;;2.78;;
323;SDS011;149;51.094;17.002;2023-05-08T12:16:38;2.85;;;2.58;;
323;SDS011;149;51.094;17.002;2023-05-08T12:19:09;5.00;;;3.45;;
323;SDS011;149;51.094;17.002;2023-05-08T12:21:37;3.08;;;2.78;;
323;SDS011;149;51.094;17.002;2023-05-08T12:24:09;3.28;;;2.55;;
323;SDS011;149;51.094;17.002;2023-05-08T12:26:37;3.88;;;3.13;;
323;SDS011;149;51.094;17.002;2023-05-08T12:29:04;2.97;;;2.53;;
323;SDS011;149;51.094;17.002;2023-05-08T12:31:33;3.13;;;2.70;;
323;SDS011;149;51.094;17.002;2023-05-08T12:34:04;2.50;;;2.30;;
323;SDS011;149;51.094;17.002;2023-05-08T12:36:35;2.93;;;2.73;;
323;SDS011;149;51.094;17.002;2023-05-08T12:39:17;2.38;;;2.15;;
323;SDS011;149;51.094;17.002;2023-05-08T12:41:45;5.20;;;2.53;;
323;SDS011;149;51.094;17.002;2023-05-08T12:44:17;4.55;;;3.10;;
323;SDS011;149;51.094;17.002;2023-05-08T12:46:52;4.70;;;3.70;;
323;SDS011;149;51.094;17.002;2023-05-08T12:49:25;2.88;;;2.67;;
323;SDS011;149;51.094;17.002;2023-05-08T12:51:59;3.50;;;3.20;;
323;SDS011;149;51.094;17.002;2023-05-08T12:54:34;3.77;;;3.43;;
323;SDS011;149;51.094;17.002;2023-05-08T12:57:13;3.27;;;2.87;;
323;SDS011;149;51.094;17.002;2023-05-08T12:59:45;3.88;;;2.92;;
323;SDS011;149;51.094;17.002;2023-05-08T13:02:12;5.10;;;3.95;;
323;SDS011;149;51.094;17.002;2023-05-08T13:04:46;4.47;;;3.00;;
323;SDS011;149;51.094;17.002;2023-05-08T13:07:16;3.90;;;2.95;;
323;SDS011;149;51.094;17.002;2023-05-08T13:09:56;3.38;;;3.05;;
323;SDS011;149;51.094;17.002;2023-05-08T13:12:24;8.32;;;3.78;;
323;SDS011;149;51.094;17.002;2023-05-08T13:14:51;5.72;;;3.10;;
323;SDS011;149;51.094;17.002;2023-05-08T13:17:18;10.98;;;3.40;;
323;SDS011;149;51.094;17.002;2023-05-08T13:19:45;4.15;;;3.38;;
323;SDS011;149;51.094;17.002;2023-05-08T13:22:15;5.78;;;3.40;;
323;SDS011;149;51.094;17.002;2023-05-08T13:24:43;3.78;;;3.20;;
323;SDS011;149;51.094;17.002;2023-05-08T13:27:09;3.08;;;2.50;;
323;SDS011;149;51.094;17.002;2023-05-08T13:29:38;3.00;;;2.70;;
323;SDS011;149;51.094;17.002;2023-05-08T13:32:07;2.42;;;2.20;;
323;SDS011;149;51.094;17.002;2023-05-08T13:34:34;3.22;;;2.97;;
323;SDS011;149;51.094;17.002;2023-05-08T13:37:12;3.60;;;2.83;;
323;SDS011;149;51.094;17.002;2023-05-08T13:39:41;5.13;;;4.00;;
323;SDS011;149;51.094;17.002;2023-05-08T13:42:09;6.57;;;3.30;;
323;SDS011;149;51.094;17.002;2023-05-08T13:44:35;2.78;;;2.58;;
323;SDS011;149;51.094;17.002;2023-05-08T13:47:02;5.40;;;2.58;;
323;SDS011;149;51.094;17.002;2023-05-08T13:49:29;3.92;;;3.47;;
323;SDS011;149;51.094;17.002;2023-05-08T13:51:56;3.80;;;2.75;;
323;SDS011;149;51.094;17.002;2023-05-08T13:54:24;5.57;;;2.60;;
323;SDS011;149;51.094;17.002;2023-05-08T13:56:50;3.35;;;3.05;;
323;SDS011;149;51.094;17.002;2023-05-08T13:59:19;3.67;;;3.23;;
323;SDS011;149;51.094;17.002;2023-05-08T14:01:46;5.80;;;2.27;;
323;SDS011;149;51.094;17.002;2023-05-08T14:04:13;2.77;;;2.57;;
323;SDS011;149;51.094;17.002;2023-05-08T14:06:40;5.87;;;2.73;;
323;SDS011;149;51.094;17.002;2023-05-08T14:09:07;4.10;;;2.58;;
323;SDS011;149;51.094;17.002;2023-05-08T14:11:34;4.70;;;3.20;;
323;SDS011;149;51.094;17.002;2023-05-08T14:14:05;4.30;;;2.75;;
323;SDS011;149;51.094;17.002;2023-05-08T14:16:36;3.53;;;3.23;;
323;SDS011;149;51.094;17.002;2023-05-08T14:19:03;3.78;;;3.47;;
323;SDS011;149;51.094;17.002;2023-05-08T14:21:30;4.28;;;3.42;;
323;SDS011;149;51.094;17.002;2023-05-08T14:23:58;3.78;;;3.10;;
323;SDS011;149;51.094;17.002;2023-05-08T14:26:25;3.20;;;2.40;;
323;SDS011;149;51.094;17.002;2023-05-08T14:28:52;2.80;;;2.60;;
323;SDS011;149;51.094;17.002;2023-05-08T14:31:19;3.93;;;2.70;;
323;SDS011;149;51.094;17.002;2023-05-08T14:33:46;7.47;;;3.13;;
323;SDS011;149;51.094;17.002;2023-05-08T14:36:13;3.85;;;2.65;;
323;SDS011;149;51.094;17.002;2023-05-08T14:38:40;4.93;;;2.90;;
323;SDS011;149;51.094;17.002;2023-05-08T14:41:07;3.63;;;2.97;;
323;SDS011;149;51.094;17.002;2023-05-08T14:43:33;3.13;;;2.87;;
323;SDS011;149;51.094;17.002;2023-05-08T14:46:00;3.60;;;2.73;;
323;SDS011;149;51.094;17.002;2023-05-08T14:48:27;4.90;;;2.90;;
323;SDS011;149;51.094;17.002;2023-05-08T14:50:55;4.47;;;2.93;;
323;SDS011;149;51.094;17.002;2023-05-08T14:53:22;3.97;;;3.67;;
323;SDS011;149;51.094;17.002;2023-05-08T14:55:49;4.68;;;4.30;;
323;SDS011;149;51.094;17.002;2023-05-08T14:58:16;4.80;;;3.27;;
323;SDS011;149;51.094;17.002;2023-05-08T15:00:43;3.17;;;2.10;;
323;SDS011;149;51.094;17.002;2023-05-08T15:03:10;4.05;;;2.70;;
323;SDS011;149;51.094;17.002;2023-05-08T15:05:37;3.25;;;2.42;;
323;SDS011;149;51.094;17.002;2023-05-08T15:08:04;3.07;;;2.40;;
323;SDS011;149;51.094;17.002;2023-05-08T15:10:33;4.73;;;2.53;;
323;SDS011;149;51.094;17.002;2023-05-08T15:13:01;2.53;;;2.33;;
323;SDS011;149;51.094;17.002;2023-05-08T15:15:27;5.10;;;2.77;;
323;SDS011;149;51.094;17.002;2023-05-08T15:17:54;4.32;;;3.83;;
323;SDS011;149;51.094;17.002;2023-05-08T15:20:21;3.60;;;3.30;;
323;SDS011;149;51.094;17.002;2023-05-08T15:22:48;3.47;;;3.00;;
323;SDS011;149;51.094;17.002;2023-05-08T15:25:15;5.27;;;2.60;;
323;SDS011;149;51.094;17.002;2023-05-08T15:27:42;2.90;;;2.27;;
323;SDS011;149;51.094;17.002;2023-05-08T15:30:09;3.57;;;2.57;;
323;SDS011;149;51.094;17.002;2023-05-08T15:32:36;5.10;;;2.83;;
323;SDS011;149;51.094;17.002;2023-05-08T15:35:05;3.00;;;2.80;;
323;SDS011;149;51.094;17.002;2023-05-08T15:37:32;3.10;;;2.85;;
323;SDS011;149;51.094;17.002;2023-05-08T15:39:59;3.17;;;2.42;;
323;SDS011;149;51.094;17.002;2023-05-08T15:42:26;4.50;;;2.40;;
323;SDS011;149;51.094;17.002;2023-05-08T15:44:56;3.10;;;2.87;;
323;SDS011;149;51.094;17.002;2023-05-08T15:47:24;3.10;;;2.33;;
323;SDS011;149;51.094;17.002;2023-05-08T15:49:52;2.83;;;2.60;;
323;SDS011;149;51.094;17.002;2023-05-08T15:52:20;6.40;;;3.00;;
323;SDS011;149;51.094;17.002;2023-05-08T15:54:48;3.83;;;2.45;;
323;SDS011;149;51.094;17.002;2023-05-08T15:57:15;2.90;;;2.65;;
323;SDS011;149;51.094;17.002;2023-05-08T15:59:42;4.37;;;3.30;;
323;SDS011;149;51.094;17.002;2023-05-08T16:02:09;3.67;;;2.23;;
323;SDS011;149;51.094;17.002;2023-05-08T16:04:37;4.10;;;3.00;;
323;SDS011;149;51.094;17.002;2023-05-08T16:07:04;2.70;;;2.50;;
323;SDS011;149;51.094;17.002;2023-05-08T16:09:31;3.83;;;3.53;;
323;SDS011;149;51.094;17.002;2023-05-08T16:11:58;2.83;;;2.58;;
323;SDS011;149;51.094;17.002;2023-05-08T16:14:25;2.93;;;2.07;;
323;SDS011;149;51.094;17.002;2023-05-08T16:16:52;2.50;;;2.30;;
323;SDS011;149;51.094;17.002;2023-05-08T16:19:19;2.47;;;2.27;;
323;SDS011;149;51.094;17.002;2023-05-08T16:21:46;2.07;;;1.87;;
323;SDS011;149;51.094;17.002;2023-05-08T16:24:13;2.30;;;1.97;;
323;SDS011;149;51.094;17.002;2023-05-08T16:26:40;2.80;;;2.60;;
323;SDS011;149;51.094;17.002;2023-05-08T16:29:07;3.10;;;2.80;;
323;SDS011;149;51.094;17.002;2023-05-08T16:31:33;2.70;;;2.10;;
323;SDS011;149;51.094;17.002;2023-05-08T16:34:01;2.28;;;2.08;;
323;SDS011;149;51.094;17.002;2023-05-08T16:36:39;2.72;;;2.30;;
323;SDS011;149;51.094;17.002;2023-05-08T16:39:08;3.50;;;2.38;;
323;SDS011;149;51.094;17.002;2023-05-08T16:41:36;2.13;;;1.90;;
323;SDS011;149;51.094;17.002;2023-05-08T16:44:04;2.20;;;2.00;;
323;SDS011;149;51.094;17.002;2023-05-08T16:46:31;2.60;;;2.40;;
323;SDS011;149;51.094;17.002;2023-05-08T16:49:01;3.78;;;2.20;;
323;SDS011;149;51.094;17.002;2023-05-08T16:51:48;3.70;;;2.40;;
323;SDS011;149;51.094;17.002;2023-05-08T16:54:15;6.22;;;2.75;;
323;SDS011;149;51.094;17.002;2023-05-08T16:56:50;2.33;;;2.10;;